»·PEaware :: N8782R L35-KLAS

N8782R :: L35-KLAS

FLIGHT INFORMATION

Flight Status: Arrived
Operator: Privately registered:
United States
More flights under this callsign
Pilot: Anonymous 21121 (21121)
Aircraft: BEECH AIRCRAFT SUPER KING AIR COMMUTER
(BE20)
More flights by this aircraft type
Origin: L35 Big Bear City
United States
Destination: KLAS McCarran Intl
United States
More flights between these airports :: More routes between these airports
Route: +OKACOV386 BRGET HEC CRESO4
File this flight plan on PilotEdge
Remarks:
Altitude:
(Current/Filed)
17,000ft
Speed:
(Current/Filed)
240kts
Departed: 21-Nov-18 04:26 PM
Arrived: 21-Nov-18 05:09 PM
Distance/Time
Traveled:
137nm/0:43
Distance/Time
To Go:
Arrived

Flight Plot

Page will automatically refresh every two minutes.

Flight plan parsing failed; only flown route is shown


Map Options




Map Legend


Flown Route
Filed Route
Departure Airport
Arrival Airport
Navaid (VOR, NDB)
Fix

Horizontal Profiles

Position Reports

Time Latitude Longitude Heading Altitude Ground
Speed
21-Nov-18 16:18 34.261823 -116.861139 359 6752ft 0kts
21-Nov-18 16:19 34.261823 -116.861139 359 6752ft 0kts
21-Nov-18 16:20 34.261823 -116.861139 359 6752ft 0kts
21-Nov-18 16:21 34.261823 -116.861139 359 6752ft 0kts
21-Nov-18 16:22 34.261823 -116.861139 359 6752ft 0kts
21-Nov-18 16:23 34.261823 -116.861139 359 6752ft 0kts
21-Nov-18 16:24 34.261823 -116.861139 359 6752ft 0kts
21-Nov-18 16:25 34.261785 -116.861140 0 6752ft 0kts
21-Nov-18 16:26 34.261789 -116.861041 78 6752ft 3kts
21-Nov-18 16:27 34.262016 -116.860261 2 6752ft 5kts
21-Nov-18 16:28 34.263355 -116.860863 2 6752ft 4kts
21-Nov-18 16:29 34.263712 -116.853437 89 6752ft 47kts
21-Nov-18 16:30 34.263839 -116.847916 265 6752ft 0kts
21-Nov-18 16:31 34.263839 -116.847916 265 6752ft 0kts
21-Nov-18 16:32 34.263839 -116.847918 265 6752ft 1kts
21-Nov-18 16:33 34.265904 -116.874300 278 7604ft 133kts
21-Nov-18 16:34 34.285183 -116.914493 350 9852ft 172kts
21-Nov-18 16:35 34.321488 -116.897506 38 11294ft 176kts
21-Nov-18 16:36 34.360153 -116.859088 39 12577ft 196kts
21-Nov-18 16:37 34.412300 -116.811769 39 13738ft 208kts
21-Nov-18 16:38 34.450149 -116.777515 40 14549ft 205kts
21-Nov-18 16:39 34.495120 -116.736169 39 15535ft 204kts
21-Nov-18 16:40 34.540167 -116.695394 39 16518ft 203kts
21-Nov-18 16:41 34.586238 -116.653632 38 16992ft 223kts
21-Nov-18 16:42 34.637445 -116.607177 38 16744ft 252kts
21-Nov-18 16:43 34.695698 -116.554338 37 16870ft 284kts
21-Nov-18 16:44 34.760645 -116.495931 38 16861ft 301kts
21-Nov-18 16:45 34.822800 -116.429062 49 16968ft 300kts
21-Nov-18 16:46 34.878753 -116.356048 49 17057ft 303kts
21-Nov-18 16:47 34.935154 -116.282258 50 17240ft 301kts
21-Nov-18 16:48 34.992172 -116.207425 50 17301ft 303kts
21-Nov-18 16:49 35.049155 -116.132509 50 17064ft 303kts
21-Nov-18 16:50 35.105552 -116.058417 50 17008ft 299kts
21-Nov-18 16:51 35.160802 -115.985456 51 17005ft 296kts
21-Nov-18 16:52 35.216320 -115.911959 51 17006ft 295kts
21-Nov-18 16:53 35.271673 -115.838525 51 17012ft 295kts
21-Nov-18 16:54 35.326828 -115.765254 50 17019ft 295kts
21-Nov-18 16:55 35.382334 -115.691397 51 15926ft 296kts
21-Nov-18 16:56 35.436895 -115.618515 51 14882ft 290kts
21-Nov-18 16:57 35.489909 -115.547512 51 13918ft 284kts
21-Nov-18 16:58 35.541904 -115.477762 51 13028ft 279kts
21-Nov-18 16:59 35.593563 -115.408339 50 11989ft 274kts
21-Nov-18 17:00 35.644088 -115.340308 49 10836ft 274kts
21-Nov-18 17:01 35.699732 -115.283908 22 9718ft 274kts
21-Nov-18 17:02 35.767841 -115.247019 22 8875ft 266kts
21-Nov-18 17:03 35.831931 -115.211113 22 8081ft 260kts
21-Nov-18 17:04 35.896106 -115.178943 22 7526ft 239kts
21-Nov-18 17:05 35.954750 -115.154669 21 7025ft 213kts
21-Nov-18 17:06 36.010487 -115.131177 22 5896ft 230kts
21-Nov-18 17:07 36.057999 -115.110208 22 5028ft 227kts
21-Nov-18 17:08 36.106372 -115.102892 4 4308ft 154kts
21-Nov-18 17:09 36.131267 -115.122732 275 2820ft 111kts
21-Nov-18 17:10 36.113246 -115.148609 205 2602ft 144kts
21-Nov-18 17:11 36.086549 -115.163995 206 2184ft 43kts
21-Nov-18 17:12 36.083765 -115.166670 233 2184ft 0kts
21-Nov-18 17:13 36.082013 -115.168950 205 2185ft 21kts
21-Nov-18 17:14 36.080692 -115.170533 153 2185ft 0kts
21-Nov-18 17:15 36.080692 -115.170533 153 2185ft 0kts

Navigation Log

Ident Type
Flight plan parsing failed, navigation log unavailable